Gunn City, Missouri
Current Conditions -  °F | °C
As of 5:55 PM on Wednesday 22 Oct 2014 (Local Time) from KRCM Reporting Station
Broken Clouds Broken Clouds  
Wind Chill: 64°   Ceiling: 4100
Heat Index: 64°   Visibility: 10mi
Dew Point: 50°   Wind: 5mph
Humidity: 59%   Direction: 120°ESE
Pressure: 30.13"   Gusts: NA
Location:  38.5641°N, 94.1793°W
Report Text: KRCM 222255Z AUTO 12004KT 10SM BKN041 BKN048 18/10 A3013 RMK AO2
Loading
Personal Weather Stations






























Interactive Weather Map
Tropical Storm Tracking
New forecast layout! Learn more

10-Day Weather Forecast

Advertisements
Track Severe Weather on mobile